Air Resources Laboratory banner image
Air Resources Laboratory web site National Oceanic and Atmospheric Administration (NOAA)

il metar


KALN 151155Z AUTO 24007KT 10SM OVC050 M02/M05 A3009 RMK AO2 T10201050 11013
 21033=
KARR 151152Z AUTO 27009KT 9SM OVC020 M03/M07 A2993 RMK AO2 SLP145 T10331067
 11033 21067 56010=
KBLV 151156Z AUTO 22006KT 10SM FEW035 M02/M07 A3009 RMK AO2 SLP198 T10211067
 11010 21021 58002 $=
KBMI 151156Z 24010KT 10SM OVC025 M04/M07 A3000 RMK AO2 SLP184 T10391067 11039
 21078 56008=
KCMI 151153Z 23010KT 10SM BKN028 OVC048 M04/M07 A3002 RMK AO2 SLP176 T10391072
 11039 21078 55005=
KCPS 151153Z AUTO 20005KT 10SM CLR M01/M07 A3010 RMK AO2 SLP196 T10111067 11006
 21028 56007=
KDEC 151154Z 23009KT 10SM FEW030 OVC048 M03/M07 A3004 RMK AO2 SLP181 7////
 T10331072 11033 21056 55004=
KDNV 151155Z AUTO 24008KT 10SM OVC042 M05/M08 A2999 RMK AO2 T10491077 11049
 21075=
KDPA 151152Z 29014KT 10SM OVC021 M04/M07 A2991 RMK AO2 SLP141 T10441072 11039
 21072 55010=
KGBG 151155Z AUTO 27012KT 10SM BKN018 OVC045 M02/M04 A3002 RMK AO2 T10201045
 11020 21038=
KIKK 151155Z AUTO 23010KT 10SM SCT026 OVC037 M04/M08 A2997 RMK AO2 T10401081
 11040 21100=
KJOT 151155Z AUTO 25007KT 10SM OVC024 M03/M07 A2994 RMK AO2 T10261068 11025
 21073=
KLOT 151155Z AUTO 25011G15KT 10SM OVC023 M04/M07 A2993 RMK AO2 T10371072 11037
 21078=
KLWV 151153Z AUTO 28007KT 10SM OVC032 M02/M07 A3009 RMK AO2 SLP195 T10171067
 11006 21017 53003=
KMDH 151152Z AUTO 30004KT 10SM OVC036 M01/M06 A3013 RMK AO2 SLP207 T10111061
 11011 21011 53002=
KMDW 151153Z 25010KT 10SM -SN OVC022 M03/M08 A2992 RMK AO2 SLP147 P0000 60000
 T10331078 11033 21061 56015=
KMLI 151152Z 31006KT 10SM SCT047 M03/M07 A3000 RMK AO2 SLP168 T10331072 11017
 21033 55001=
KMTO 151153Z AUTO 24006KT 10SM FEW047 M04/M07 A3004 RMK AO2 SLP181 T10441072
 11033 21050 56005 $=
KMVN 151156Z AUTO 26004KT 10SM OVC032 M02/M06 A3011 RMK AO2 SLP202 T10171061
 11011 21017 53002 FZRANO=
KMWA 151155Z AUTO 00000KT 10SM OVC035 00/M06 A3013 RMK AO2 T10031060 10000
 21003=
KORD 151151Z 29014G19KT 10SM -SN OVC020 M03/M08 A2991 RMK AO2 SNB46 SLP137
 P0000 60000 T10331078 11033 21061 55011 $=
KPIA 151154Z 28009KT 10SM OVC029 M02/M06 A3002 RMK AO2 SLP173 T10221061 11022
 21039 56005 $=
KPWK 151152Z 28013G26KT 10SM OVC022 M04/M08 A2992 RMK AO2 PK WND 28027/1138
 SLP142 T10391083 11033 21044 55010=
KRFD 151154Z 29008KT 9SM -SN OVC023 M04/M08 A2994 RMK AO2 SLP148 P0000 60000
 T10391078 11039 21050 56007=
KSLO 151155Z AUTO 25006KT 10SM OVC031 M01/M06 A3010 RMK AO2 T10071060 11006
 21010=
KSPI 151152Z 24007KT 10SM OVC046 M02/M06 A3005 RMK AO2 SLP181 T10171061 11017
 21056 56007=
KSQI 151156Z AUTO 28014KT 10SM OVC038 M03/M08 A2996 RMK AO2 SLP169 6//// 7////
 T10331083 56001 FZRANO=
KUGN 151155Z 28009G15KT 10SM OVC020 M04/M08 A2987 RMK AO2 SLP137 T10441083
 11039 21061 56013=
KUIN 151154Z AUTO 26005KT 10SM OVC022 M01/M04 A3005 RMK AO2 SLP183 T10061044
 11006 21050 51000=